This is the latest recevied weather packets stored in our database for station/object KA7KDX-4. If no packets are shown the sender has not sent any weather packets the latest 1 day(s).
| Time | Temp. | Humidity | Pressure | Rain* | Wind** | Luminosity | Snow |
|---|---|---|---|---|---|---|---|
| 1777980905 | 12.78° C | 63% | 1005.3 hPa | 0.25 mm | 3.58 m/s, 213° | - | - |
| 1777980605 | 12.78° C | 61% | 1005.1 hPa | 0 mm | 2.68 m/s, 220° | - | - |
| 1777980305 | 13.33° C | 57% | 1004.8 hPa | 0 mm | 1.79 m/s, 220° | - | - |
| 1777980005 | 13.33° C | 54% | 1004.8 hPa | 0 mm | 2.24 m/s, 249° | - | - |
| 1777979706 | 13.33° C | 54% | 1004.9 hPa | 0 mm | 1.79 m/s, 238° | - | - |
| 1777979406 | 13.33° C | 56% | 1005 hPa | 0 mm | 1.79 m/s, 208° | - | - |
| 1777979106 | 13.33° C | 55% | 1005 hPa | 0 mm | 2.24 m/s, 185° | - | - |
| 1777978805 | 13.33° C | 56% | 1004.9 hPa | 0 mm | 3.58 m/s, 165° | - | - |
| 1777978505 | 13.33° C | 56% | 1004.9 hPa | 0 mm | 3.13 m/s, 152° | - | - |
| 1777978205 | 13.33° C | 55% | 1004.8 hPa | 0 mm | 4.02 m/s, 147° | - | - |
| 1777977905 | 13.33° C | 54% | 1004.7 hPa | 0 mm | 4.47 m/s, 147° | - | - |
| 1777977605 | 13.33° C | 55% | 1004.7 hPa | 0 mm | 3.58 m/s, 147° | - | - |
| 1777977305 | 13.33° C | 57% | 1004.7 hPa | 0 mm | 3.13 m/s, 146° | - | - |
| 1777977005 | 13.33° C | 56% | 1004.6 hPa | 0 mm | 3.58 m/s, 142° | - | - |
| 1777976706 | 13.33° C | 54% | 1004.5 hPa | 0 mm | 4.47 m/s, 148° | - | - |
| 1777976406 | 13.33° C | 55% | 1004.5 hPa | 0 mm | 4.02 m/s, 156° | - | - |
| 1777976105 | 13.33° C | 55% | 1004.6 hPa | 0 mm | 3.58 m/s, 158° | - | - |
| 1777975805 | 13.33° C | 55% | 1004.7 hPa | 0 mm | 4.02 m/s, 162° | - | - |
| 1777975505 | 13.33° C | 55% | 1004.7 hPa | 0 mm | 4.47 m/s, 160° | - | - |
| 1777975205 | 13.33° C | 56% | 1004.8 hPa | 0 mm | 4.47 m/s, 168° | - | - |
| 1777974905 | 13.33° C | 53% | 1004.8 hPa | 0 mm | 5.36 m/s, 201° | - | - |
| 1777974605 | 13.33° C | 54% | 1004.8 hPa | 0.25 mm | 5.81 m/s, 196° | - | - |
| 1777974305 | 13.33° C | 56% | 1004.9 hPa | 1.02 mm | 5.36 m/s, 191° | - | - |
| 1777974006 | 13.33° C | 56% | 1004.8 hPa | 1.27 mm | 6.26 m/s, 197° | - | - |
| 1777973706 | 13.33° C | 55% | 1004.7 hPa | 0.76 mm | 6.26 m/s, 197° | - | - |
* Rain latest hour (hover to see other rain measurements)
** Current wind speed in m/s (hover to see current wind gust speed)